createdAt,value
2023-04-26T00:03:53.868Z,82.0
2023-04-26T00:08:59.896Z,82.0
2023-04-26T00:14:06.096Z,82.0
2023-04-26T00:19:12.340Z,82.5
2023-04-26T00:24:18.515Z,82.5
2023-04-26T00:29:24.723Z,82.5
2023-04-26T00:34:30.933Z,82.5
2023-04-26T00:39:37.142Z,83.0
2023-04-26T00:49:49.544Z,83.0
2023-04-26T00:54:54.789Z,83.0
2023-04-26T01:00:01.032Z,82.5
2023-04-26T01:05:06.230Z,83.0
2023-04-26T01:10:12.442Z,83.0
2023-04-26T01:15:18.641Z,83.0
2023-04-26T01:20:24.927Z,83.0
2023-04-26T01:25:31.124Z,83.5
2023-04-26T01:30:37.258Z,83.5
2023-04-26T01:35:43.496Z,83.5
2023-04-26T01:40:49.678Z,83.5
2023-04-26T01:45:55.906Z,84.0
2023-04-26T01:51:02.097Z,84.0
2023-04-26T01:56:08.303Z,84.5
2023-04-26T02:01:14.537Z,84.5
2023-04-26T02:06:20.723Z,84.5
2023-04-26T02:11:26.976Z,84.5
2023-04-26T02:16:33.161Z,84.5
2023-04-26T02:21:39.335Z,85.0
2023-04-26T02:26:45.555Z,85.0
2023-04-26T02:31:51.844Z,85.0
2023-04-26T02:36:57.967Z,85.0
2023-04-26T02:42:04.164Z,85.0
2023-04-26T02:47:10.467Z,85.5
2023-04-26T02:52:15.605Z,85.5
2023-04-26T02:57:21.815Z,86.0
2023-04-26T03:02:27.212Z,86.0
2023-04-26T03:07:33.263Z,86.0
2023-04-26T03:12:39.465Z,86.0
2023-04-26T03:17:45.692Z,86.0
2023-04-26T03:22:51.879Z,86.0
2023-04-26T03:27:58.085Z,86.0
2023-04-26T03:33:04.337Z,86.5
2023-04-26T03:38:10.504Z,86.5
2023-04-26T03:43:16.719Z,86.5
2023-04-26T03:48:22.908Z,86.5
2023-04-26T03:53:29.120Z,86.5
2023-04-26T03:58:35.332Z,86.5
2023-04-26T04:03:42.011Z,86.5
2023-04-26T04:08:47.746Z,86.5
2023-04-26T04:13:53.960Z,86.0
2023-04-26T04:19:00.158Z,86.5
2023-04-26T04:24:06.365Z,86.5
2023-04-26T04:29:12.574Z,87.0
2023-04-26T04:34:18.776Z,87.0
2023-04-26T04:39:24.984Z,87.0
2023-04-26T04:44:31.202Z,87.0
2023-04-26T04:49:36.437Z,87.0
2023-04-26T04:54:42.636Z,87.5
2023-04-26T04:59:47.869Z,87.5
2023-04-26T05:04:54.100Z,88.0
2023-04-26T05:10:00.288Z,88.0
2023-04-26T05:15:06.553Z,88.0
2023-04-26T05:20:12.707Z,88.5
2023-04-26T05:25:20.246Z,88.5
2023-04-26T05:30:25.147Z,89.0
2023-04-26T05:35:31.329Z,89.5
2023-04-26T05:40:37.537Z,89.5
2023-04-26T05:45:43.789Z,90.0
2023-04-26T05:50:49.945Z,90.0
2023-04-26T05:55:56.154Z,90.0
2023-04-26T06:01:02.358Z,90.5
2023-04-26T06:06:08.574Z,90.5
2023-04-26T06:11:14.786Z,90.0
2023-04-26T06:16:21.004Z,90.5
2023-04-26T06:21:27.186Z,90.0
2023-04-26T06:26:33.400Z,90.0
2023-04-26T06:31:39.634Z,90.5
2023-04-26T06:36:45.813Z,90.5
2023-04-26T06:41:52.642Z,90.5
2023-04-26T06:46:57.261Z,91.0
2023-04-26T06:52:03.472Z,91.5
2023-04-26T06:57:08.690Z,91.5
2023-04-26T07:02:15.846Z,91.0
2023-04-26T07:07:20.146Z,91.0
2023-04-26T07:12:26.340Z,91.0
2023-04-26T07:17:32.642Z,91.0
2023-04-26T07:22:38.761Z,90.5
2023-04-26T07:27:44.968Z,90.0
2023-04-26T07:32:51.265Z,89.5
2023-04-26T07:37:57.386Z,89.0
2023-04-26T07:43:03.593Z,88.5
2023-04-26T07:48:09.848Z,88.0
2023-04-26T07:53:16.009Z,87.5
2023-04-26T07:58:22.213Z,87.5
2023-04-26T08:03:28.759Z,87.0
2023-04-26T08:08:34.642Z,86.5
2023-04-26T08:13:40.836Z,85.0
2023-04-26T08:18:47.180Z,85.0
2023-04-26T08:23:53.632Z,84.0
2023-04-26T08:28:59.464Z,83.5
2023-04-26T08:34:05.666Z,82.5
2023-04-26T08:39:11.906Z,82.0
2023-04-26T08:44:18.091Z,82.0
2023-04-26T08:49:24.290Z,82.0
2023-04-26T08:54:29.538Z,80.5
2023-04-26T08:59:35.738Z,80.5
2023-04-26T09:04:41.174Z,79.0
2023-04-26T09:09:47.184Z,78.0
2023-04-26T09:14:53.436Z,77.0
2023-04-26T09:19:59.601Z,77.5
2023-04-26T09:25:05.808Z,77.5
2023-04-26T09:30:12.009Z,77.5
2023-04-26T09:35:18.224Z,77.0
2023-04-26T09:40:24.445Z,76.5
2023-04-26T09:50:36.851Z,76.0
2023-04-26T09:55:43.051Z,76.5
2023-04-26T10:00:49.309Z,76.0
2023-04-26T10:05:55.481Z,74.5
2023-04-26T10:11:01.683Z,74.0
2023-04-26T10:16:07.959Z,73.5
2023-04-26T10:21:14.101Z,73.0
2023-04-26T10:26:20.307Z,73.5
2023-04-26T10:31:26.579Z,73.0
2023-04-26T10:36:32.720Z,73.0
2023-04-26T10:41:38.928Z,73.0
2023-04-26T10:46:45.148Z,73.5
2023-04-26T10:51:51.352Z,73.0
2023-04-26T10:56:56.592Z,73.5
2023-04-26T11:02:02.809Z,73.5
2023-04-26T11:07:08.997Z,73.5
2023-04-26T11:12:15.225Z,74.0
2023-04-26T11:17:21.450Z,74.0
2023-04-26T11:22:27.636Z,74.0
2023-04-26T11:27:33.891Z,74.5
2023-04-26T11:32:40.067Z,74.0
2023-04-26T11:37:46.264Z,74.0
2023-04-26T11:42:52.460Z,73.5
2023-04-26T11:47:58.707Z,72.5
2023-04-26T11:53:04.873Z,72.0
2023-04-26T12:03:17.516Z,71.0
2023-04-26T12:08:23.503Z,70.0
2023-04-26T12:13:29.715Z,70.0
2023-04-26T12:18:35.944Z,69.5
2023-04-26T12:23:42.153Z,69.0
2023-04-26T12:28:48.347Z,68.5
2023-04-26T12:33:54.561Z,68.0
2023-04-26T12:39:00.773Z,68.0
2023-04-26T12:44:06.975Z,67.5
2023-04-26T12:49:12.216Z,68.0
2023-04-26T12:54:18.424Z,67.5
2023-04-26T12:59:23.659Z,68.0
2023-04-26T13:04:30.135Z,68.0
2023-04-26T13:09:35.101Z,68.0
2023-04-26T13:14:41.316Z,68.5
2023-04-26T13:19:47.534Z,68.5
2023-04-26T13:24:53.762Z,68.5
2023-04-26T13:29:59.943Z,68.5
2023-04-26T13:35:06.152Z,69.0
2023-04-26T13:40:12.368Z,69.5
2023-04-26T13:45:19.424Z,69.5
2023-04-26T13:50:24.769Z,69.0
2023-04-26T13:55:30.998Z,69.5
2023-04-26T14:05:43.392Z,69.0
2023-04-26T14:10:49.601Z,69.5
2023-04-26T14:15:55.852Z,68.5
2023-04-26T14:21:02.026Z,68.5
2023-04-26T14:26:08.242Z,68.5
2023-04-26T14:31:14.506Z,68.0
2023-04-26T14:36:20.666Z,68.0
2023-04-26T14:41:26.875Z,67.5
2023-04-26T14:46:33.149Z,67.0
2023-04-26T14:51:39.306Z,66.5
2023-04-26T14:56:45.639Z,66.0
2023-04-26T15:01:50.906Z,66.0
2023-04-26T15:06:57.003Z,65.5
2023-04-26T15:12:02.202Z,65.5
2023-04-26T15:17:08.518Z,65.5
2023-04-26T15:22:14.728Z,65.5
2023-04-26T15:27:20.840Z,65.5
2023-04-26T15:32:27.070Z,66.0
2023-04-26T15:37:33.253Z,65.5
2023-04-26T15:42:39.465Z,65.5
2023-04-26T15:47:45.793Z,65.5
2023-04-26T15:52:51.885Z,65.5
2023-04-26T15:57:58.105Z,65.0
2023-04-26T16:03:04.536Z,65.0
2023-04-26T16:08:10.537Z,65.5
2023-04-26T16:13:16.834Z,65.5
2023-04-26T16:18:22.959Z,65.5
2023-04-26T16:23:29.164Z,65.5
2023-04-26T16:28:35.382Z,65.0
2023-04-26T16:33:41.593Z,65.0
2023-04-26T16:38:47.809Z,65.0
2023-04-26T16:43:54.016Z,65.0
2023-04-26T16:49:00.217Z,65.5
2023-04-26T16:54:06.415Z,65.5
2023-04-26T16:59:11.723Z,66.0
2023-04-26T17:09:24.069Z,66.5
2023-04-26T17:14:29.310Z,66.0
2023-04-26T17:19:35.597Z,66.5
2023-04-26T17:24:41.725Z,66.5
2023-04-26T17:29:47.936Z,66.0
2023-04-26T17:34:54.128Z,66.0
2023-04-26T17:40:00.360Z,66.5
2023-04-26T17:45:06.561Z,66.5
2023-04-26T17:50:12.785Z,67.0
2023-04-26T17:55:18.974Z,67.0
2023-04-26T18:00:25.190Z,67.0
2023-04-26T18:05:31.399Z,67.0
2023-04-26T18:10:37.605Z,67.0
2023-04-26T18:15:43.808Z,67.0
2023-04-26T18:20:50.014Z,67.5
2023-04-26T18:25:56.210Z,67.5
2023-04-26T18:31:02.462Z,67.5
2023-04-26T18:36:08.640Z,67.5
2023-04-26T18:41:14.840Z,68.0
2023-04-26T18:46:21.090Z,68.5
2023-04-26T18:51:27.295Z,69.0
2023-04-26T18:56:33.459Z,69.0
2023-04-26T19:01:38.873Z,69.5
2023-04-26T19:06:44.943Z,70.0
2023-04-26T19:11:50.150Z,70.0
2023-04-26T19:16:56.365Z,70.5
2023-04-26T19:22:02.555Z,70.5
2023-04-26T19:27:08.777Z,71.0
2023-04-26T19:32:15.010Z,71.0
2023-04-26T19:37:21.187Z,71.0
2023-04-26T19:42:27.403Z,71.5
2023-04-26T19:47:33.632Z,71.5
2023-04-26T19:52:39.824Z,71.5
2023-04-26T19:57:46.032Z,71.5
2023-04-26T20:02:52.410Z,72.0
2023-04-26T20:07:58.440Z,72.0
2023-04-26T20:13:04.659Z,72.0
2023-04-26T20:18:10.852Z,72.5
2023-04-26T20:23:17.054Z,72.5
2023-04-26T20:28:23.272Z,73.0
2023-04-26T20:33:29.483Z,73.0
2023-04-26T20:38:35.695Z,73.5
2023-04-26T20:43:41.898Z,73.5
2023-04-26T20:48:48.095Z,74.0
2023-04-26T20:53:54.318Z,74.0
2023-04-26T20:58:59.544Z,74.0
2023-04-26T21:04:05.878Z,74.0
2023-04-26T21:09:11.304Z,74.0
2023-04-26T21:14:17.196Z,74.0
2023-04-26T21:19:23.552Z,74.0
2023-04-26T21:24:29.626Z,74.5
2023-04-26T21:29:35.829Z,74.5
2023-04-26T21:34:42.042Z,74.5
2023-04-26T21:39:48.326Z,74.5
2023-04-26T21:44:54.442Z,75.0
2023-04-26T21:50:00.662Z,75.0
2023-04-26T21:55:06.868Z,75.0
2023-04-26T22:00:13.087Z,75.5
2023-04-26T22:05:19.276Z,75.5
2023-04-26T22:10:25.501Z,75.5
2023-04-26T22:15:31.704Z,76.0
2023-04-26T22:20:37.913Z,76.0
2023-04-26T22:25:44.137Z,76.0
2023-04-26T22:30:50.325Z,76.5
2023-04-26T22:35:56.519Z,76.5
2023-04-26T22:41:02.731Z,77.0
2023-04-26T22:46:09.042Z,77.0
2023-04-26T22:56:21.349Z,77.5
2023-04-26T23:01:26.644Z,78.0
2023-04-26T23:06:32.797Z,78.0
2023-04-26T23:11:38.024Z,78.0
2023-04-26T23:16:44.264Z,78.0
2023-04-26T23:21:50.453Z,78.0
2023-04-26T23:26:56.680Z,78.5
2023-04-26T23:32:02.965Z,78.5
2023-04-26T23:37:09.131Z,78.5
2023-04-26T23:42:15.335Z,78.5
2023-04-26T23:47:21.654Z,79.0
2023-04-26T23:52:27.810Z,79.0
2023-04-26T23:57:33.976Z,79.0
